createdAt,value
2023-05-20T00:01:55.832Z,11.94
2023-05-20T00:04:22.594Z,11.82
2023-05-20T00:06:49.386Z,11.81
2023-05-20T00:09:17.370Z,11.67
2023-05-20T00:11:44.620Z,11.69
2023-05-20T00:14:11.375Z,11.67
2023-05-20T00:16:38.492Z,11.62
2023-05-20T00:19:05.279Z,11.43
2023-05-20T00:21:32.167Z,11.50
2023-05-20T00:23:59.007Z,11.53
2023-05-20T00:26:26.781Z,11.53
2023-05-20T00:28:53.525Z,11.60
2023-05-20T00:31:20.297Z,11.61
2023-05-20T00:33:47.105Z,11.63
2023-05-20T00:36:13.949Z,11.65
2023-05-20T00:38:40.783Z,11.68
2023-05-20T00:41:07.666Z,11.66
2023-05-20T00:43:34.489Z,11.62
2023-05-20T00:46:01.585Z,11.61
2023-05-20T00:48:37.190Z,11.63
2023-05-20T00:51:05.219Z,11.58
2023-05-20T00:53:32.045Z,11.63
2023-05-20T00:55:58.858Z,11.59
2023-05-20T00:58:25.615Z,11.57
2023-05-20T01:00:52.443Z,11.56
2023-05-20T01:03:19.869Z,11.58
2023-05-20T01:05:47.006Z,11.59
2023-05-20T01:08:13.933Z,11.59
2023-05-20T01:10:43.642Z,11.62
2023-05-20T01:13:12.274Z,11.69
2023-05-20T01:15:40.906Z,11.68
2023-05-20T01:18:10.794Z,11.72
2023-05-20T01:20:39.541Z,11.73
2023-05-20T01:23:06.411Z,11.79
2023-05-20T01:25:33.449Z,11.77
2023-05-20T01:28:00.834Z,11.71
2023-05-20T01:30:37.313Z,11.68
2023-05-20T01:33:11.883Z,11.72
2023-05-20T01:35:39.862Z,11.74
2023-05-20T01:38:06.981Z,11.56
2023-05-20T01:40:34.669Z,11.43
2023-05-20T01:43:02.100Z,11.34
2023-05-20T01:45:28.897Z,11.31
2023-05-20T01:47:55.735Z,11.40
2023-05-20T01:50:22.745Z,11.35
2023-05-20T01:52:49.511Z,11.35
2023-05-20T01:55:16.306Z,11.38
2023-05-20T01:57:43.095Z,11.34
2023-05-20T02:00:12.284Z,11.31
2023-05-20T02:02:39.131Z,11.38
2023-05-20T02:05:06.191Z,11.38
2023-05-20T02:07:32.983Z,11.38
2023-05-20T02:09:59.885Z,11.45
2023-05-20T02:12:26.830Z,11.57
2023-05-20T02:14:53.745Z,11.40
2023-05-20T02:17:20.746Z,11.38
2023-05-20T02:19:47.515Z,11.36
2023-05-20T02:22:14.783Z,11.41
2023-05-20T02:24:43.303Z,11.61
2023-05-20T02:27:10.325Z,11.79
2023-05-20T02:29:37.082Z,11.63
2023-05-20T02:32:04.039Z,11.61
2023-05-20T02:34:32.444Z,11.58
2023-05-20T02:36:59.363Z,11.59
2023-05-20T02:39:26.208Z,11.63
2023-05-20T02:41:52.991Z,11.64
2023-05-20T02:44:19.938Z,11.70
2023-05-20T02:46:46.721Z,11.68
2023-05-20T02:49:13.492Z,11.66
2023-05-20T02:51:41.142Z,11.63
2023-05-20T02:54:07.948Z,11.50
2023-05-20T02:56:34.757Z,11.54
2023-05-20T02:59:01.836Z,11.50
2023-05-20T03:01:29.352Z,11.33
2023-05-20T03:03:56.273Z,11.22
2023-05-20T03:06:23.073Z,11.22
2023-05-20T03:08:49.853Z,11.23
2023-05-20T03:11:16.669Z,11.20
2023-05-20T03:13:43.456Z,11.17
2023-05-20T03:16:13.274Z,11.18
2023-05-20T03:18:40.146Z,11.20
2023-05-20T03:21:07.035Z,11.14
2023-05-20T03:23:33.846Z,11.11
2023-05-20T03:26:00.772Z,11.08
2023-05-20T03:28:27.532Z,11.15
2023-05-20T03:30:54.346Z,11.13
2023-05-20T03:33:21.276Z,11.07
2023-05-20T03:35:47.978Z,11.08
2023-05-20T03:38:14.764Z,10.98
2023-05-20T03:40:41.725Z,10.92
2023-05-20T03:43:08.585Z,10.95
2023-05-20T03:45:35.626Z,10.95
2023-05-20T03:48:03.757Z,10.94
2023-05-20T03:50:31.354Z,10.86
2023-05-20T03:52:58.143Z,10.80
2023-05-20T03:55:25.215Z,10.78
2023-05-20T03:57:52.030Z,10.83
2023-05-20T04:00:18.856Z,10.95
2023-05-20T04:02:45.897Z,11.03
2023-05-20T04:05:12.663Z,11.31
2023-05-20T04:07:39.534Z,11.20
2023-05-20T04:10:07.140Z,11.18
2023-05-20T04:12:36.133Z,11.17
2023-05-20T04:15:03.165Z,11.29
2023-05-20T04:17:30.697Z,11.23
2023-05-20T04:20:00.048Z,11.18
2023-05-20T04:22:27.357Z,11.17
2023-05-20T04:24:54.151Z,11.14
2023-05-20T04:27:21.730Z,11.18
2023-05-20T04:29:48.805Z,11.25
2023-05-20T04:32:19.121Z,11.20
2023-05-20T04:34:46.916Z,11.23
2023-05-20T04:37:14.136Z,11.23
2023-05-20T04:39:40.935Z,11.31
2023-05-20T04:42:07.694Z,11.43
2023-05-20T04:44:34.656Z,11.51
2023-05-20T04:47:01.460Z,11.63
2023-05-20T04:49:30.068Z,11.63
2023-05-20T04:51:56.783Z,11.72
2023-05-20T04:54:23.610Z,11.65
2023-05-20T04:56:51.179Z,11.63
2023-05-20T04:59:18.118Z,11.62
2023-05-20T05:01:44.972Z,11.86
2023-05-20T05:04:11.755Z,11.78
2023-05-20T05:06:38.549Z,11.80
2023-05-20T05:09:05.346Z,11.92
2023-05-20T05:11:32.135Z,11.95
2023-05-20T05:13:58.861Z,12.13
2023-05-20T05:16:25.733Z,11.99
2023-05-20T05:18:52.716Z,12.12
2023-05-20T05:21:20.184Z,12.61
2023-05-20T05:23:46.937Z,12.84
2023-05-20T05:26:13.775Z,13.08
2023-05-20T05:28:42.079Z,13.10
2023-05-20T05:31:09.099Z,12.98
2023-05-20T05:33:35.962Z,12.92
2023-05-20T05:36:02.853Z,12.90
2023-05-20T05:38:29.789Z,13.04
2023-05-20T05:40:56.902Z,12.97
2023-05-20T05:43:23.716Z,12.90
2023-05-20T05:45:50.451Z,13.81
2023-05-20T05:48:17.133Z,14.39
2023-05-20T05:50:47.181Z,14.64
2023-05-20T05:53:14.032Z,14.81
2023-05-20T05:55:40.833Z,15.02
2023-05-20T05:58:07.761Z,14.88
2023-05-20T06:00:34.825Z,14.74
2023-05-20T06:03:01.711Z,14.71
2023-05-20T06:05:29.807Z,15.02
2023-05-20T06:07:56.877Z,15.24
2023-05-20T06:10:23.777Z,15.16
2023-05-20T06:12:50.647Z,15.07
2023-05-20T06:15:17.561Z,15.11
2023-05-20T06:17:44.459Z,15.05
2023-05-20T06:20:11.829Z,15.11
2023-05-20T06:22:38.678Z,15.16
2023-05-20T06:25:06.419Z,15.18
2023-05-20T06:27:33.499Z,15.33
2023-05-20T06:30:00.371Z,15.62
2023-05-20T06:32:27.844Z,15.97
2023-05-20T06:34:54.707Z,16.42
2023-05-20T06:37:24.583Z,16.95
2023-05-20T06:39:54.074Z,17.16
2023-05-20T06:42:21.650Z,16.72
2023-05-20T06:44:48.623Z,16.68
2023-05-20T06:47:16.953Z,16.57
2023-05-20T06:49:47.343Z,16.60
2023-05-20T06:52:14.634Z,17.04
2023-05-20T06:54:41.812Z,17.63
2023-05-20T06:57:09.232Z,18.25
2023-05-20T06:59:37.134Z,18.51
2023-05-20T07:02:04.278Z,19.08
2023-05-20T07:04:31.178Z,19.26
2023-05-20T07:06:57.991Z,19.00
2023-05-20T07:09:24.936Z,18.80
2023-05-20T07:11:51.750Z,19.06
2023-05-20T07:14:18.936Z,19.46
2023-05-20T07:16:45.743Z,19.78
2023-05-20T07:19:12.590Z,19.85
2023-05-20T07:21:39.422Z,20.08
2023-05-20T07:24:06.441Z,20.38
2023-05-20T07:26:36.420Z,20.02
2023-05-20T07:29:04.534Z,20.00
2023-05-20T07:31:31.712Z,20.34
2023-05-20T07:33:58.493Z,19.68
2023-05-20T07:36:27.531Z,19.22
2023-05-20T07:39:02.452Z,19.51
2023-05-20T07:41:31.233Z,19.77
2023-05-20T07:43:58.048Z,20.14
2023-05-20T07:46:24.877Z,19.68
2023-05-20T07:48:51.767Z,20.06
2023-05-20T07:51:19.151Z,19.74
2023-05-20T07:53:45.986Z,19.56
2023-05-20T07:56:12.871Z,19.57
2023-05-20T07:58:41.982Z,19.85
2023-05-20T08:01:09.643Z,20.61
2023-05-20T08:03:37.076Z,20.96
2023-05-20T08:06:04.197Z,20.73
2023-05-20T08:08:31.128Z,20.60
2023-05-20T08:10:57.997Z,20.11
2023-05-20T08:13:25.413Z,20.03
2023-05-20T08:15:54.769Z,19.94
2023-05-20T08:18:21.822Z,20.46
2023-05-20T08:20:48.681Z,20.40
2023-05-20T08:23:15.508Z,21.14
2023-05-20T08:25:42.310Z,21.52
2023-05-20T08:28:09.099Z,21.58
2023-05-20T08:30:35.988Z,21.12
2023-05-20T08:33:02.895Z,20.96
2023-05-20T08:35:29.828Z,20.43
2023-05-20T08:37:56.614Z,20.98
2023-05-20T08:40:23.604Z,20.32
2023-05-20T08:42:53.096Z,20.63
2023-05-20T08:45:21.620Z,21.21
2023-05-20T08:47:48.545Z,21.68
2023-05-20T08:50:16.455Z,21.28
2023-05-20T08:52:48.381Z,21.12
2023-05-20T08:55:23.100Z,20.88
2023-05-20T08:57:58.980Z,21.36
2023-05-20T09:00:29.117Z,21.91
2023-05-20T09:02:58.171Z,22.34
2023-05-20T09:05:27.841Z,22.13
2023-05-20T09:08:05.546Z,22.15
2023-05-20T09:10:33.480Z,21.75
2023-05-20T09:13:02.772Z,21.78
2023-05-20T09:15:30.240Z,21.60
2023-05-20T09:18:01.325Z,21.37
2023-05-20T09:20:32.018Z,21.37
2023-05-20T09:23:05.107Z,22.04
2023-05-20T09:25:32.693Z,22.93
2023-05-20T09:27:59.660Z,23.49
2023-05-20T09:30:26.897Z,23.83
2023-05-20T09:32:57.707Z,23.59
2023-05-20T09:35:26.239Z,22.93
2023-05-20T09:37:57.292Z,22.37
2023-05-20T09:40:28.402Z,22.16
2023-05-20T09:43:07.980Z,22.55
2023-05-20T09:45:35.302Z,22.47
2023-05-20T09:48:03.295Z,22.55
2023-05-20T09:50:31.520Z,22.67
2023-05-20T09:53:03.706Z,22.31
2023-05-20T09:55:31.204Z,21.95
2023-05-20T09:58:00.155Z,21.57
2023-05-20T10:00:27.021Z,21.71
2023-05-20T10:02:53.987Z,22.13
2023-05-20T10:05:30.755Z,21.95
2023-05-20T10:08:12.865Z,22.07
2023-05-20T10:10:48.704Z,22.39
2023-05-20T10:13:40.228Z,22.60
2023-05-20T10:16:50.997Z,22.69
2023-05-20T10:19:34.377Z,22.51
2023-05-20T10:22:09.234Z,22.55
2023-05-20T10:24:43.133Z,22.17
2023-05-20T10:27:18.787Z,22.30
2023-05-20T10:29:58.319Z,22.18
2023-05-20T10:32:25.926Z,22.60
2023-05-20T10:34:53.092Z,23.04
2023-05-20T10:37:29.378Z,23.32
2023-05-20T10:40:13.725Z,23.38
2023-05-20T10:42:41.137Z,23.06
2023-05-20T10:45:08.853Z,22.95
2023-05-20T10:47:36.511Z,22.99
2023-05-20T10:50:06.144Z,23.15
2023-05-20T10:52:39.191Z,23.52
2023-05-20T10:55:06.652Z,22.71
2023-05-20T10:57:34.632Z,22.89
2023-05-20T11:00:01.571Z,22.83
2023-05-20T11:02:29.105Z,22.42
2023-05-20T11:04:59.542Z,22.74
2023-05-20T11:07:30.893Z,23.05
2023-05-20T11:09:58.848Z,23.02
2023-05-20T11:12:27.151Z,22.76
2023-05-20T11:14:54.584Z,22.90
2023-05-20T11:17:21.522Z,22.95
2023-05-20T11:19:48.884Z,22.61
2023-05-20T11:22:15.958Z,22.78
2023-05-20T11:24:42.856Z,22.35
2023-05-20T11:27:09.779Z,22.27
2023-05-20T11:29:36.727Z,22.33
2023-05-20T11:32:03.808Z,22.91
2023-05-20T11:34:35.355Z,22.94
2023-05-20T11:37:02.695Z,22.98
2023-05-20T11:39:30.390Z,23.29
2023-05-20T11:41:58.388Z,22.67
2023-05-20T11:44:26.110Z,22.67
2023-05-20T11:47:00.133Z,22.91
2023-05-20T11:49:27.037Z,22.90
2023-05-20T11:51:53.847Z,23.04
2023-05-20T11:54:22.816Z,23.25
2023-05-20T11:56:50.302Z,22.65
2023-05-20T11:59:17.068Z,22.64
2023-05-20T12:01:44.576Z,22.69
2023-05-20T12:04:13.841Z,22.87
2023-05-20T12:06:40.882Z,22.59
2023-05-20T12:09:08.898Z,22.93
2023-05-20T12:11:44.743Z,23.29
2023-05-20T12:14:11.713Z,23.65
2023-05-20T12:16:38.720Z,23.75
2023-05-20T12:19:05.975Z,23.48
2023-05-20T12:21:32.857Z,23.92
2023-05-20T12:23:59.996Z,23.97
2023-05-20T12:26:28.188Z,23.97
2023-05-20T12:28:55.744Z,23.77
2023-05-20T12:31:22.584Z,23.62
2023-05-20T12:33:49.492Z,23.14
2023-05-20T12:36:16.478Z,23.09
2023-05-20T12:38:43.462Z,22.97
2023-05-20T12:41:10.349Z,22.53
2023-05-20T12:43:37.664Z,22.34
2023-05-20T12:46:04.749Z,22.02
2023-05-20T12:48:31.564Z,21.95
2023-05-20T12:50:58.411Z,21.75
2023-05-20T12:53:25.535Z,21.93
2023-05-20T12:55:52.582Z,21.83
2023-05-20T12:58:19.440Z,21.84
2023-05-20T13:00:46.382Z,21.80
2023-05-20T13:03:13.360Z,21.74
2023-05-20T13:05:40.512Z,21.75
2023-05-20T13:08:09.188Z,21.65
2023-05-20T13:10:36.314Z,21.84
2023-05-20T13:13:03.430Z,22.15
2023-05-20T13:15:30.275Z,22.38
2023-05-20T13:17:57.532Z,22.19
2023-05-20T13:20:24.431Z,21.76
2023-05-20T13:22:51.292Z,21.84
2023-05-20T13:25:18.134Z,21.64
2023-05-20T13:27:44.922Z,21.64
2023-05-20T13:30:11.942Z,21.36
2023-05-20T13:32:38.771Z,21.37
2023-05-20T13:35:06.141Z,21.08
2023-05-20T13:37:32.867Z,21.16
2023-05-20T13:39:59.676Z,20.99
2023-05-20T13:42:26.422Z,21.13
2023-05-20T13:44:53.297Z,21.14
2023-05-20T13:47:20.088Z,21.07
2023-05-20T13:49:46.894Z,21.25
2023-05-20T13:52:13.628Z,21.13
2023-05-20T13:54:40.704Z,21.21
2023-05-20T13:57:08.217Z,21.14
2023-05-20T13:59:35.364Z,21.14
2023-05-20T14:02:02.767Z,21.23
2023-05-20T14:04:31.318Z,21.45
2023-05-20T14:06:59.509Z,21.66
2023-05-20T14:09:26.513Z,21.56
2023-05-20T14:11:53.390Z,21.49
2023-05-20T14:14:20.116Z,21.55
2023-05-20T14:16:47.453Z,21.72
2023-05-20T14:19:14.429Z,21.80
2023-05-20T14:21:41.241Z,21.61
2023-05-20T14:24:08.028Z,21.65
2023-05-20T14:26:34.821Z,21.66
2023-05-20T14:29:01.841Z,21.83
2023-05-20T14:31:28.652Z,21.78
2023-05-20T14:33:55.590Z,21.97
2023-05-20T14:36:22.401Z,22.14
2023-05-20T14:38:49.800Z,22.06
2023-05-20T14:41:16.790Z,22.17
2023-05-20T14:43:43.586Z,22.00
2023-05-20T14:46:11.213Z,21.93
2023-05-20T14:48:38.105Z,21.72
2023-05-20T14:51:05.082Z,22.13
2023-05-20T14:53:31.826Z,21.99
2023-05-20T14:55:58.663Z,21.89
2023-05-20T14:58:25.635Z,22.39
2023-05-20T15:00:55.337Z,22.54
2023-05-20T15:03:24.277Z,22.39
2023-05-20T15:05:51.199Z,22.23
2023-05-20T15:08:18.270Z,22.35
2023-05-20T15:10:45.056Z,22.37
2023-05-20T15:13:11.823Z,22.54
2023-05-20T15:15:38.688Z,22.40
2023-05-20T15:18:05.541Z,22.29
2023-05-20T15:20:32.427Z,22.21
2023-05-20T15:23:00.844Z,22.19
2023-05-20T15:25:27.853Z,22.33
2023-05-20T15:27:54.577Z,22.13
2023-05-20T15:30:22.893Z,21.95
2023-05-20T15:32:49.876Z,22.18
2023-05-20T15:35:16.857Z,22.07
2023-05-20T15:37:43.572Z,21.87
2023-05-20T15:40:11.415Z,22.12
2023-05-20T15:42:38.154Z,21.99
2023-05-20T15:45:05.159Z,21.97
2023-05-20T15:47:31.945Z,21.95
2023-05-20T15:49:58.780Z,21.98
2023-05-20T15:52:25.672Z,22.00
2023-05-20T15:54:52.467Z,22.21
2023-05-20T15:57:19.460Z,21.97
2023-05-20T15:59:46.527Z,21.77
2023-05-20T16:02:13.394Z,21.49
2023-05-20T16:04:40.323Z,21.66
2023-05-20T16:07:07.104Z,21.61
2023-05-20T16:09:34.224Z,21.67
2023-05-20T16:12:00.952Z,21.65
2023-05-20T16:14:27.800Z,21.57
2023-05-20T16:16:54.555Z,21.58
2023-05-20T16:19:21.434Z,21.53
2023-05-20T16:21:48.274Z,21.41
2023-05-20T16:24:16.972Z,21.43
2023-05-20T16:26:43.844Z,21.53
2023-05-20T16:29:10.631Z,21.46
2023-05-20T16:31:37.372Z,21.27
2023-05-20T16:34:04.579Z,21.16
2023-05-20T16:36:31.916Z,20.93
2023-05-20T16:38:58.691Z,20.94
2023-05-20T16:41:26.388Z,20.81
2023-05-20T16:43:53.095Z,20.68
2023-05-20T16:46:20.032Z,20.67
2023-05-20T16:48:46.932Z,20.78
2023-05-20T16:51:13.696Z,20.87
2023-05-20T16:53:40.696Z,20.83
2023-05-20T16:56:08.267Z,20.75
2023-05-20T16:58:35.114Z,20.67
2023-05-20T17:01:02.228Z,20.65
2023-05-20T17:03:29.372Z,20.64
2023-05-20T17:05:56.221Z,20.61
2023-05-20T17:08:23.117Z,20.61
2023-05-20T17:10:52.412Z,20.51
2023-05-20T17:13:20.679Z,20.39
2023-05-20T17:15:47.467Z,20.33
2023-05-20T17:18:14.274Z,20.31
2023-05-20T17:20:41.719Z,20.19
2023-05-20T17:23:08.655Z,20.01
2023-05-20T17:25:35.705Z,20.00
2023-05-20T17:28:02.512Z,20.00
2023-05-20T17:30:29.374Z,19.73
2023-05-20T17:32:57.579Z,19.68
2023-05-20T17:35:28.225Z,19.53
2023-05-20T17:37:55.315Z,19.49
2023-05-20T17:40:22.125Z,19.46
2023-05-20T17:42:48.895Z,19.42
2023-05-20T17:45:15.883Z,19.39
2023-05-20T17:47:42.960Z,19.36
2023-05-20T17:50:10.409Z,19.27
2023-05-20T17:52:37.271Z,19.26
2023-05-20T17:55:05.021Z,19.21
2023-05-20T17:57:31.791Z,19.10
2023-05-20T17:59:58.745Z,19.11
2023-05-20T18:02:25.681Z,18.98
2023-05-20T18:04:52.847Z,18.89
2023-05-20T18:07:20.752Z,18.91
2023-05-20T18:09:47.533Z,18.81
2023-05-20T18:12:14.357Z,18.64
2023-05-20T18:14:41.436Z,18.56
2023-05-20T18:17:08.324Z,18.38
2023-05-20T18:19:36.191Z,18.38
2023-05-20T18:22:03.122Z,18.17
2023-05-20T18:24:30.008Z,18.15
2023-05-20T18:26:57.474Z,18.11
2023-05-20T18:29:25.799Z,17.98
2023-05-20T18:31:52.919Z,17.80
2023-05-20T18:34:19.851Z,17.78
2023-05-20T18:36:46.680Z,17.67
2023-05-20T18:39:16.062Z,17.51
2023-05-20T18:41:47.253Z,17.65
2023-05-20T18:44:15.785Z,17.39
2023-05-20T18:46:43.198Z,17.35
2023-05-20T18:49:13.299Z,17.33
2023-05-20T18:51:40.931Z,17.42
2023-05-20T18:54:07.916Z,17.59
2023-05-20T18:56:35.167Z,17.69
2023-05-20T18:59:02.308Z,17.60
2023-05-20T19:01:29.132Z,17.56
2023-05-20T19:03:55.961Z,17.49
2023-05-20T19:06:22.788Z,17.41
2023-05-20T19:08:49.884Z,17.40
2023-05-20T19:11:19.291Z,17.40
2023-05-20T19:13:46.569Z,17.40
2023-05-20T19:16:13.757Z,17.41
2023-05-20T19:18:40.759Z,17.47
2023-05-20T19:21:07.692Z,17.44
2023-05-20T19:23:35.471Z,17.51
2023-05-20T19:26:02.744Z,17.57
2023-05-20T19:28:29.646Z,17.43
2023-05-20T19:30:56.493Z,17.37
2023-05-20T19:33:23.396Z,17.28
2023-05-20T19:35:50.671Z,17.22
2023-05-20T19:38:17.640Z,17.21
2023-05-20T19:40:45.056Z,17.14
2023-05-20T19:43:11.979Z,17.09
2023-05-20T19:45:39.166Z,17.06
2023-05-20T19:48:06.850Z,16.99
2023-05-20T19:50:35.218Z,16.95
2023-05-20T19:53:06.482Z,16.92
2023-05-20T19:55:35.313Z,16.96
2023-05-20T19:58:02.474Z,16.95
2023-05-20T20:00:29.746Z,16.84
2023-05-20T20:02:57.090Z,16.82
2023-05-20T20:05:26.094Z,16.70
2023-05-20T20:07:52.983Z,16.71
2023-05-20T20:10:20.469Z,16.70
2023-05-20T20:12:47.305Z,16.60
2023-05-20T20:15:14.429Z,16.68
2023-05-20T20:17:45.555Z,16.57
2023-05-20T20:20:15.359Z,16.57
2023-05-20T20:22:42.389Z,16.50
2023-05-20T20:25:09.365Z,16.38
2023-05-20T20:27:36.177Z,16.40
2023-05-20T20:30:03.147Z,16.41
2023-05-20T20:32:30.074Z,16.44
2023-05-20T20:34:58.089Z,16.37
2023-05-20T20:37:26.957Z,16.30
2023-05-20T20:39:54.750Z,16.29
2023-05-20T20:42:24.890Z,16.36
2023-05-20T20:44:52.882Z,16.32
2023-05-20T20:47:19.832Z,16.22
2023-05-20T20:49:46.573Z,16.23
2023-05-20T20:52:13.331Z,16.25
2023-05-20T20:54:42.773Z,16.21
2023-05-20T20:57:09.979Z,16.12
2023-05-20T20:59:36.821Z,16.18
2023-05-20T21:02:04.634Z,16.15
2023-05-20T21:04:32.985Z,16.09
2023-05-20T21:07:02.157Z,15.97
2023-05-20T21:09:29.199Z,15.95
2023-05-20T21:11:57.464Z,15.92
2023-05-20T21:14:25.412Z,15.72
2023-05-20T21:16:52.552Z,15.73
2023-05-20T21:19:19.510Z,15.77
2023-05-20T21:21:46.292Z,15.88
2023-05-20T21:24:13.026Z,15.94
2023-05-20T21:26:39.835Z,15.99
2023-05-20T21:29:07.569Z,15.89
2023-05-20T21:31:34.467Z,15.90
2023-05-20T21:34:01.393Z,15.89
2023-05-20T21:36:28.259Z,15.84
2023-05-20T21:38:55.306Z,15.93
2023-05-20T21:41:23.565Z,15.80
2023-05-20T21:43:50.380Z,15.81
2023-05-20T21:46:17.210Z,15.85
2023-05-20T21:48:44.018Z,15.82
2023-05-20T21:51:10.850Z,15.73
2023-05-20T21:53:37.582Z,15.63
2023-05-20T21:56:04.603Z,15.67
2023-05-20T21:58:31.610Z,15.68
2023-05-20T22:00:58.404Z,15.62
2023-05-20T22:03:25.291Z,15.52
2023-05-20T22:05:52.739Z,15.40
2023-05-20T22:08:19.498Z,15.24
2023-05-20T22:10:47.084Z,15.18
2023-05-20T22:13:13.875Z,15.20
2023-05-20T22:15:40.864Z,15.23
2023-05-20T22:18:07.994Z,15.13
2023-05-20T22:20:34.827Z,15.23
2023-05-20T22:23:01.617Z,15.11
2023-05-20T22:25:28.368Z,15.07
2023-05-20T22:27:55.173Z,15.13
2023-05-20T22:30:22.077Z,15.17
2023-05-20T22:32:48.962Z,15.23
2023-05-20T22:35:15.936Z,15.22
2023-05-20T22:37:43.337Z,15.22
2023-05-20T22:40:10.813Z,15.15
2023-05-20T22:42:37.572Z,15.06
2023-05-20T22:45:04.798Z,15.06
2023-05-20T22:47:31.675Z,14.95
2023-05-20T22:50:02.486Z,14.83
2023-05-20T22:52:29.790Z,14.84
2023-05-20T22:54:56.889Z,14.75
2023-05-20T22:57:24.948Z,14.73
2023-05-20T22:59:52.389Z,14.70
2023-05-20T23:02:19.108Z,14.57
2023-05-20T23:04:46.037Z,14.51
2023-05-20T23:07:15.098Z,14.58
2023-05-20T23:09:42.105Z,14.56
2023-05-20T23:12:09.103Z,14.58
2023-05-20T23:14:36.070Z,14.52
2023-05-20T23:17:03.107Z,14.49
2023-05-20T23:19:30.038Z,14.45
2023-05-20T23:21:57.160Z,14.39
2023-05-20T23:24:24.384Z,14.31
2023-05-20T23:26:51.718Z,14.23
2023-05-20T23:29:18.969Z,14.15
2023-05-20T23:31:45.859Z,14.10
2023-05-20T23:34:12.690Z,14.14
2023-05-20T23:36:42.063Z,14.05
2023-05-20T23:39:08.967Z,14.13
2023-05-20T23:41:35.796Z,14.06
2023-05-20T23:44:04.060Z,14.00
2023-05-20T23:46:31.577Z,13.90
2023-05-20T23:49:00.380Z,13.78
2023-05-20T23:51:28.088Z,13.71
2023-05-20T23:53:55.224Z,13.67
2023-05-20T23:56:22.491Z,13.54
2023-05-20T23:58:49.323Z,13.43
